createdAt,value
2023-05-22T00:00:37.219Z,12.70
2023-05-22T00:03:08.545Z,13.95
2023-05-22T00:05:39.459Z,11.18
2023-05-22T00:08:11.597Z,13.63
2023-05-22T00:10:42.430Z,14.13
2023-05-22T00:13:09.532Z,10.68
2023-05-22T00:15:36.521Z,12.57
2023-05-22T00:18:04.099Z,10.57
2023-05-22T00:20:31.172Z,13.45
2023-05-22T00:23:01.254Z,11.32
2023-05-22T00:25:28.340Z,9.80
2023-05-22T00:27:55.396Z,9.32
2023-05-22T00:30:22.407Z,9.60
2023-05-22T00:32:49.446Z,12.40
2023-05-22T00:35:16.439Z,11.25
2023-05-22T00:37:46.112Z,11.68
2023-05-22T00:40:15.846Z,11.75
2023-05-22T00:42:47.041Z,12.10
2023-05-22T00:45:15.182Z,12.80
2023-05-22T00:47:42.616Z,15.15
2023-05-22T00:50:11.861Z,10.82
2023-05-22T00:52:42.683Z,14.57
2023-05-22T00:55:12.293Z,11.30
2023-05-22T00:57:43.044Z,15.43
2023-05-22T01:00:11.462Z,14.95
2023-05-22T01:02:39.616Z,14.88
2023-05-22T01:05:07.962Z,14.75
2023-05-22T01:07:37.829Z,13.35
2023-05-22T01:10:06.338Z,14.15
2023-05-22T01:12:41.944Z,11.23
2023-05-22T01:15:26.577Z,14.82
2023-05-22T01:18:11.351Z,11.73
2023-05-22T01:20:43.552Z,13.55
2023-05-22T01:23:29.132Z,11.45
2023-05-22T01:26:14.946Z,12.18
2023-05-22T01:28:50.897Z,16.10
2023-05-22T01:31:23.468Z,14.65
2023-05-22T01:33:54.462Z,14.45
2023-05-22T01:36:24.800Z,15.00
2023-05-22T01:38:54.438Z,10.55
2023-05-22T01:41:22.457Z,12.20
2023-05-22T01:43:49.648Z,15.32
2023-05-22T01:46:16.785Z,11.65
2023-05-22T01:48:43.806Z,14.48
2023-05-22T01:51:20.366Z,16.20
2023-05-22T01:54:24.668Z,12.13
2023-05-22T01:57:07.596Z,16.50
2023-05-22T01:59:43.565Z,14.57
2023-05-22T02:02:13.709Z,16.98
2023-05-22T02:04:46.412Z,13.85
2023-05-22T02:09:44.377Z,12.30
2023-05-22T02:12:13.722Z,15.63
2023-05-22T02:14:43.571Z,14.95
2023-05-22T02:17:10.700Z,14.57
2023-05-22T02:19:37.852Z,17.02
2023-05-22T02:22:05.955Z,18.35
2023-05-22T02:24:37.007Z,16.10
2023-05-22T02:27:04.214Z,12.32
2023-05-22T02:29:31.216Z,16.00
2023-05-22T02:31:58.714Z,17.80
2023-05-22T02:34:27.092Z,19.60
2023-05-22T02:36:54.158Z,14.27
2023-05-22T02:39:21.319Z,15.10
2023-05-22T02:41:48.475Z,17.10
2023-05-22T02:44:15.550Z,16.85
2023-05-22T02:46:43.674Z,12.75
2023-05-22T02:49:10.735Z,17.70
2023-05-22T02:51:37.815Z,14.00
2023-05-22T02:54:04.906Z,15.20
2023-05-22T02:56:32.889Z,15.60
2023-05-22T02:58:59.968Z,15.43
2023-05-22T03:01:27.065Z,17.25
2023-05-22T03:03:55.096Z,17.48
2023-05-22T03:06:23.320Z,14.30
2023-05-22T03:08:50.856Z,15.75
2023-05-22T03:11:17.921Z,19.33
2023-05-22T03:13:45.132Z,16.40
2023-05-22T03:16:12.233Z,13.77
2023-05-22T03:18:43.724Z,14.45
2023-05-22T03:21:11.024Z,21.08
2023-05-22T03:23:38.207Z,22.20
2023-05-22T03:26:05.277Z,19.63
2023-05-22T03:28:36.065Z,18.73
2023-05-22T03:31:03.352Z,19.70
2023-05-22T03:33:38.415Z,16.10
2023-05-22T03:36:05.956Z,15.40
2023-05-22T03:38:32.977Z,17.02
2023-05-22T03:41:01.001Z,24.75
2023-05-22T03:43:27.992Z,16.45
2023-05-22T03:45:55.324Z,15.45
2023-05-22T03:48:22.470Z,20.35
2023-05-22T03:50:51.381Z,20.38
2023-05-22T03:53:18.352Z,17.33
2023-05-22T03:55:45.563Z,15.43
2023-05-22T03:58:12.658Z,17.15
2023-05-22T04:00:39.912Z,16.90
2023-05-22T04:03:12.989Z,18.42
2023-05-22T04:05:40.559Z,17.70
2023-05-22T04:08:07.553Z,20.38
2023-05-22T04:10:35.955Z,17.90
2023-05-22T04:13:03.099Z,19.00
2023-05-22T04:15:30.234Z,21.27
2023-05-22T04:17:57.403Z,16.65
2023-05-22T04:20:24.434Z,17.05
2023-05-22T04:22:51.602Z,17.88
2023-05-22T04:25:18.652Z,17.55
2023-05-22T04:27:45.666Z,19.63
2023-05-22T04:30:14.383Z,17.85
2023-05-22T04:32:41.530Z,22.50
2023-05-22T04:35:10.150Z,23.33
2023-05-22T04:37:42.378Z,17.38
2023-05-22T04:40:10.175Z,20.25
2023-05-22T04:42:40.508Z,15.82
2023-05-22T04:45:08.550Z,21.33
2023-05-22T04:47:38.314Z,22.33
2023-05-22T04:50:07.774Z,18.85
2023-05-22T04:52:36.068Z,24.40
2023-05-22T04:55:05.986Z,21.23
2023-05-22T04:57:33.306Z,20.85
2023-05-22T05:00:01.246Z,15.93
2023-05-22T05:02:28.743Z,21.10
2023-05-22T05:04:56.194Z,15.45
2023-05-22T05:07:24.083Z,19.20
2023-05-22T05:09:51.494Z,16.95
2023-05-22T05:12:18.576Z,20.42
2023-05-22T05:14:45.661Z,19.20
2023-05-22T05:17:15.692Z,15.90
2023-05-22T05:19:42.793Z,17.55
2023-05-22T05:22:09.760Z,18.52
2023-05-22T05:24:36.907Z,20.23
2023-05-22T05:27:04.767Z,17.63
2023-05-22T05:29:32.175Z,22.63
2023-05-22T05:32:13.975Z,20.45
2023-05-22T05:34:48.424Z,18.98
2023-05-22T05:37:35.857Z,17.73
2023-05-22T05:40:07.234Z,20.38
2023-05-22T05:42:35.994Z,18.85
2023-05-22T05:45:05.037Z,21.08
2023-05-22T05:47:33.004Z,22.98
2023-05-22T05:50:00.867Z,24.30
2023-05-22T05:52:32.890Z,22.30
2023-05-22T05:55:03.621Z,30.17
2023-05-22T05:57:32.105Z,19.63
2023-05-22T05:59:59.589Z,19.63
2023-05-22T06:02:42.245Z,23.48
2023-05-22T06:05:29.612Z,21.98
2023-05-22T06:08:08.718Z,27.70
2023-05-22T06:10:36.139Z,29.92
2023-05-22T06:13:15.133Z,26.30
2023-05-22T06:15:42.469Z,32.25
2023-05-22T06:18:09.551Z,29.52
2023-05-22T06:20:37.802Z,39.50
2023-05-22T06:23:05.683Z,34.33
2023-05-22T06:25:33.098Z,37.22
2023-05-22T06:28:00.947Z,32.55
2023-05-22T06:30:39.456Z,37.13
2023-05-22T06:33:14.762Z,34.20
2023-05-22T06:35:43.217Z,36.50
2023-05-22T06:38:10.338Z,40.65
2023-05-22T06:40:38.044Z,39.80
2023-05-22T06:43:12.609Z,44.35
2023-05-22T06:45:51.270Z,47.88
2023-05-22T06:48:35.076Z,39.83
2023-05-22T06:51:11.779Z,51.67
2023-05-22T06:53:41.077Z,43.17
2023-05-22T06:56:13.539Z,44.80
2023-05-22T06:59:04.797Z,49.30
2023-05-22T07:02:10.554Z,36.95
2023-05-22T07:04:56.234Z,34.10
2023-05-22T07:07:32.906Z,32.60
2023-05-22T07:10:00.122Z,33.95
2023-05-22T07:12:28.291Z,36.50
2023-05-22T07:14:57.040Z,43.03
2023-05-22T07:17:26.159Z,32.88
2023-05-22T07:19:54.013Z,37.47
2023-05-22T07:22:21.558Z,38.97
2023-05-22T07:24:49.012Z,34.90
2023-05-22T07:27:17.947Z,29.25
2023-05-22T07:29:47.693Z,38.33
2023-05-22T07:32:14.860Z,34.10
2023-05-22T07:34:42.759Z,31.92
2023-05-22T07:37:14.286Z,34.28
2023-05-22T07:39:43.281Z,34.13
2023-05-22T07:42:10.773Z,36.35
2023-05-22T07:44:45.098Z,31.58
2023-05-22T07:47:12.333Z,36.42
2023-05-22T07:49:40.240Z,31.58
2023-05-22T07:52:07.443Z,36.70
2023-05-22T07:54:34.552Z,38.00
2023-05-22T07:57:03.526Z,34.35
2023-05-22T07:59:35.844Z,34.87
2023-05-22T08:02:03.101Z,27.63
2023-05-22T08:04:30.384Z,32.15
2023-05-22T08:06:57.482Z,34.08
2023-05-22T08:09:24.499Z,34.72
2023-05-22T08:11:51.559Z,32.10
2023-05-22T08:14:18.629Z,30.45
2023-05-22T08:16:45.708Z,30.08
2023-05-22T08:19:12.928Z,33.55
2023-05-22T08:21:40.405Z,30.25
2023-05-22T08:24:08.225Z,28.95
2023-05-22T08:26:35.262Z,34.75
2023-05-22T08:29:02.697Z,27.70
2023-05-22T08:31:29.816Z,28.80
2023-05-22T08:34:02.727Z,26.95
2023-05-22T08:36:34.207Z,28.60
2023-05-22T08:39:01.924Z,25.85
2023-05-22T08:41:30.104Z,26.45
2023-05-22T08:43:57.612Z,25.70
2023-05-22T08:46:29.457Z,28.35
2023-05-22T08:48:57.894Z,26.35
2023-05-22T08:51:31.509Z,24.92
2023-05-22T08:56:29.127Z,27.52
2023-05-22T08:58:58.499Z,25.40
2023-05-22T09:01:26.118Z,26.38
2023-05-22T09:03:53.998Z,21.30
2023-05-22T09:06:21.198Z,25.05
2023-05-22T09:08:48.915Z,23.52
2023-05-22T09:11:17.906Z,30.25
2023-05-22T09:13:44.984Z,24.30
2023-05-22T09:16:13.046Z,26.58
2023-05-22T09:18:42.333Z,30.23
2023-05-22T09:21:25.986Z,31.35
2023-05-22T09:24:01.365Z,30.50
2023-05-22T09:26:29.550Z,30.80
2023-05-22T09:28:59.002Z,32.22
2023-05-22T09:31:26.265Z,28.50
2023-05-22T09:33:54.294Z,32.42
2023-05-22T09:36:22.145Z,31.70
2023-05-22T09:38:49.388Z,40.83
2023-05-22T09:41:22.626Z,35.03
2023-05-22T09:43:52.517Z,34.35
2023-05-22T09:46:19.649Z,40.20
2023-05-22T09:48:52.326Z,34.67
2023-05-22T09:51:23.943Z,36.13
2023-05-22T09:53:52.421Z,34.15
2023-05-22T09:56:31.124Z,35.22
2023-05-22T09:59:09.308Z,30.85
2023-05-22T10:01:38.748Z,30.65
2023-05-22T10:04:10.201Z,32.03
2023-05-22T10:06:38.428Z,31.00
2023-05-22T10:09:09.557Z,29.77
2023-05-22T10:11:37.825Z,29.20
2023-05-22T10:14:05.251Z,29.85
2023-05-22T10:16:34.313Z,31.35
2023-05-22T10:19:01.605Z,30.23
2023-05-22T10:21:30.200Z,24.25
2023-05-22T10:23:59.512Z,26.73
2023-05-22T10:26:27.341Z,27.73
2023-05-22T10:29:11.502Z,26.10
2023-05-22T10:31:50.722Z,24.70
2023-05-22T10:34:40.709Z,23.48
2023-05-22T10:37:31.924Z,17.42
2023-05-22T10:40:08.992Z,21.35
2023-05-22T10:42:38.720Z,20.30
2023-05-22T10:45:09.268Z,23.90
2023-05-22T10:47:37.089Z,20.80
2023-05-22T10:50:11.380Z,23.95
2023-05-22T10:52:39.972Z,21.58
2023-05-22T10:55:10.930Z,22.30
2023-05-22T10:57:39.751Z,23.60
2023-05-22T11:00:15.739Z,23.35
2023-05-22T11:02:46.366Z,17.88
2023-05-22T11:05:21.700Z,19.50
2023-05-22T11:07:49.121Z,20.25
2023-05-22T11:10:44.643Z,21.67
2023-05-22T11:13:12.172Z,22.02
2023-05-22T11:15:45.519Z,23.00
2023-05-22T11:18:14.581Z,21.05
2023-05-22T11:20:42.261Z,21.23
2023-05-22T11:23:11.646Z,18.92
2023-05-22T11:25:41.363Z,21.48
2023-05-22T11:28:10.682Z,17.02
2023-05-22T11:30:38.656Z,17.65
2023-05-22T11:33:08.776Z,18.17
2023-05-22T11:35:37.698Z,19.27
2023-05-22T11:38:07.312Z,18.83
2023-05-22T11:40:34.557Z,17.23
2023-05-22T11:43:01.842Z,18.77
2023-05-22T11:45:28.885Z,20.90
2023-05-22T11:47:56.375Z,16.90
2023-05-22T11:50:43.646Z,17.23
2023-05-22T11:53:10.757Z,16.73
2023-05-22T11:55:37.778Z,20.15
2023-05-22T11:58:04.829Z,15.40
2023-05-22T12:00:32.151Z,16.30
2023-05-22T12:02:59.595Z,17.05
2023-05-22T12:05:26.836Z,16.98
2023-05-22T12:07:54.075Z,15.93
2023-05-22T12:10:21.139Z,18.35
2023-05-22T12:12:48.472Z,17.45
2023-05-22T12:15:20.326Z,18.15
2023-05-22T12:17:47.427Z,15.63
2023-05-22T12:20:14.695Z,15.18
2023-05-22T12:22:43.457Z,13.65
2023-05-22T12:25:17.634Z,16.27
2023-05-22T12:27:46.153Z,14.82
2023-05-22T12:30:14.092Z,15.48
2023-05-22T12:32:46.804Z,13.45
2023-05-22T12:35:18.340Z,16.70
2023-05-22T12:37:50.305Z,14.80
2023-05-22T12:40:17.587Z,14.23
2023-05-22T12:42:45.143Z,18.75
2023-05-22T12:45:13.308Z,19.00
2023-05-22T12:47:40.415Z,15.45
2023-05-22T12:50:08.382Z,15.25
2023-05-22T12:52:36.093Z,19.65
2023-05-22T12:55:03.324Z,17.33
2023-05-22T12:57:30.279Z,21.20
2023-05-22T12:59:57.368Z,18.58
2023-05-22T13:02:24.414Z,16.65
2023-05-22T13:04:51.576Z,15.05
2023-05-22T13:07:18.594Z,17.70
2023-05-22T13:09:45.618Z,20.23
2023-05-22T13:12:12.826Z,22.05
2023-05-22T13:14:40.691Z,20.02
2023-05-22T13:17:08.244Z,19.85
2023-05-22T13:19:35.345Z,23.27
2023-05-22T13:22:02.511Z,25.25
2023-05-22T13:24:29.884Z,24.92
2023-05-22T13:26:56.926Z,18.92
2023-05-22T13:29:24.046Z,21.92
2023-05-22T13:31:51.441Z,17.52
2023-05-22T13:34:18.783Z,21.10
2023-05-22T13:36:46.639Z,21.50
2023-05-22T13:39:13.699Z,21.42
2023-05-22T13:41:40.771Z,18.52
2023-05-22T13:44:07.924Z,19.00
2023-05-22T13:46:34.984Z,20.75
2023-05-22T13:49:02.112Z,18.48
2023-05-22T13:51:29.449Z,20.60
2023-05-22T13:53:56.498Z,20.65
2023-05-22T13:56:23.909Z,18.15
2023-05-22T13:58:50.979Z,18.27
2023-05-22T14:01:18.105Z,18.38
2023-05-22T14:03:45.269Z,19.38
2023-05-22T14:06:12.291Z,18.55
2023-05-22T14:08:39.375Z,23.13
2023-05-22T14:11:06.400Z,16.27
2023-05-22T14:13:33.484Z,16.60
2023-05-22T14:16:00.538Z,16.70
2023-05-22T14:18:27.641Z,22.05
2023-05-22T14:20:54.878Z,21.20
2023-05-22T14:23:22.200Z,20.17
2023-05-22T14:25:49.240Z,18.45
2023-05-22T14:28:16.609Z,17.55
2023-05-22T14:30:43.666Z,18.63
2023-05-22T14:33:11.486Z,16.98
2023-05-22T14:35:38.811Z,19.42
2023-05-22T14:38:06.396Z,18.77
2023-05-22T14:40:33.640Z,20.27
2023-05-22T14:43:01.138Z,16.48
2023-05-22T14:45:28.182Z,18.50
2023-05-22T14:47:55.309Z,21.23
2023-05-22T14:50:22.544Z,18.27
2023-05-22T14:52:50.051Z,20.45
2023-05-22T14:55:17.883Z,17.30
2023-05-22T14:57:44.987Z,17.42
2023-05-22T15:00:12.738Z,14.95
2023-05-22T15:02:40.725Z,21.60
2023-05-22T15:05:08.635Z,19.05
2023-05-22T15:07:43.972Z,17.52
2023-05-22T15:10:12.583Z,16.13
2023-05-22T15:12:39.603Z,21.25
2023-05-22T15:15:07.226Z,23.20
2023-05-22T15:17:34.325Z,23.10
2023-05-22T15:20:01.430Z,21.63
2023-05-22T15:22:28.465Z,22.20
2023-05-22T15:25:15.472Z,21.30
2023-05-22T15:27:42.889Z,19.35
2023-05-22T15:30:10.397Z,18.40
2023-05-22T15:32:38.044Z,16.85
2023-05-22T15:35:06.461Z,19.83
2023-05-22T15:37:34.198Z,20.98
2023-05-22T15:40:02.296Z,17.63
2023-05-22T15:42:30.005Z,19.42
2023-05-22T15:44:59.274Z,21.63
2023-05-22T15:47:26.841Z,21.17
2023-05-22T15:49:53.918Z,23.88
2023-05-22T15:52:22.583Z,21.75
2023-05-22T15:54:49.754Z,19.63
2023-05-22T15:57:17.081Z,19.75
2023-05-22T15:59:47.030Z,25.73
2023-05-22T16:02:14.474Z,20.30
2023-05-22T16:04:41.612Z,24.70
2023-05-22T16:07:08.709Z,28.67
2023-05-22T16:09:36.279Z,24.75
2023-05-22T16:12:04.165Z,19.23
2023-05-22T16:14:31.377Z,22.20
2023-05-22T16:16:58.467Z,22.52
2023-05-22T16:19:25.700Z,19.38
2023-05-22T16:21:53.756Z,21.05
2023-05-22T16:24:20.773Z,17.92
2023-05-22T16:26:47.823Z,22.13
2023-05-22T16:29:14.881Z,18.83
2023-05-22T16:31:45.119Z,17.20
2023-05-22T16:34:13.182Z,20.67
2023-05-22T16:36:40.214Z,21.42
2023-05-22T16:39:07.274Z,19.77
2023-05-22T16:41:34.501Z,18.80
2023-05-22T16:44:01.522Z,17.90
2023-05-22T16:46:28.534Z,16.60
2023-05-22T16:48:55.627Z,20.40
2023-05-22T16:51:22.674Z,14.05
2023-05-22T16:53:50.391Z,16.98
2023-05-22T16:56:20.394Z,20.58
2023-05-22T16:58:47.790Z,18.60
2023-05-22T17:01:15.064Z,17.30
2023-05-22T17:03:42.198Z,22.30
2023-05-22T17:06:09.259Z,20.52
2023-05-22T17:08:36.334Z,19.10
2023-05-22T17:11:03.392Z,24.98
2023-05-22T17:13:30.420Z,20.88
2023-05-22T17:15:57.577Z,23.65
2023-05-22T17:18:24.620Z,19.65
2023-05-22T17:20:54.001Z,21.65
2023-05-22T17:23:21.528Z,21.65
2023-05-22T17:25:48.757Z,27.50
2023-05-22T17:28:15.816Z,24.15
2023-05-22T17:30:46.690Z,25.15
2023-05-22T17:33:14.190Z,23.58
2023-05-22T17:35:41.858Z,22.50
2023-05-22T17:38:08.983Z,23.52
2023-05-22T17:40:44.737Z,24.02
2023-05-22T17:43:12.482Z,26.33
2023-05-22T17:45:39.785Z,25.27
2023-05-22T17:48:07.829Z,18.13
2023-05-22T17:50:35.034Z,21.42
2023-05-22T17:53:02.159Z,24.73
2023-05-22T17:55:29.179Z,21.05
2023-05-22T17:57:56.463Z,19.50
2023-05-22T18:00:23.591Z,24.02
2023-05-22T18:02:50.868Z,24.27
2023-05-22T18:05:18.063Z,27.17
2023-05-22T18:07:45.093Z,27.80
2023-05-22T18:10:12.074Z,25.77
2023-05-22T18:12:39.397Z,28.25
2023-05-22T18:15:09.610Z,27.58
2023-05-22T18:17:36.788Z,26.80
2023-05-22T18:20:07.419Z,31.40
2023-05-22T18:22:38.409Z,31.13
2023-05-22T18:25:09.395Z,30.50
2023-05-22T18:27:36.587Z,32.58
2023-05-22T18:30:05.276Z,25.10
2023-05-22T18:32:32.580Z,39.17
2023-05-22T18:35:02.403Z,30.80
2023-05-22T18:37:29.784Z,34.90
2023-05-22T18:39:56.861Z,36.28
2023-05-22T18:42:23.908Z,33.00
2023-05-22T18:44:51.090Z,35.97
2023-05-22T18:47:18.568Z,39.67
2023-05-22T18:49:45.634Z,31.75
2023-05-22T18:52:12.902Z,29.92
2023-05-22T18:54:40.022Z,27.42
2023-05-22T18:57:07.114Z,27.60
2023-05-22T18:59:34.073Z,27.20
2023-05-22T19:02:01.200Z,24.98
2023-05-22T19:04:29.579Z,22.40
2023-05-22T19:06:56.777Z,27.13
2023-05-22T19:09:24.788Z,27.63
2023-05-22T19:11:51.864Z,22.02
2023-05-22T19:14:18.861Z,22.20
2023-05-22T19:16:45.951Z,29.52
2023-05-22T19:19:14.746Z,20.20
2023-05-22T19:21:42.018Z,24.35
2023-05-22T19:24:09.045Z,24.05
2023-05-22T19:26:36.259Z,20.73
2023-05-22T19:29:03.339Z,24.02
2023-05-22T19:31:30.614Z,22.25
2023-05-22T19:33:57.762Z,22.10
2023-05-22T19:36:24.899Z,28.35
2023-05-22T19:38:53.410Z,21.02
2023-05-22T19:41:21.647Z,20.10
2023-05-22T19:43:48.690Z,19.67
2023-05-22T19:46:15.776Z,21.30
2023-05-22T19:48:42.773Z,16.42
2023-05-22T19:51:09.780Z,20.92
2023-05-22T19:53:36.853Z,20.55
2023-05-22T19:56:04.029Z,21.00
2023-05-22T19:58:31.078Z,21.88
2023-05-22T20:00:58.187Z,20.13
2023-05-22T20:03:26.326Z,22.65
2023-05-22T20:05:53.880Z,18.60
2023-05-22T20:08:25.581Z,19.42
2023-05-22T20:10:53.030Z,19.35
2023-05-22T20:13:20.084Z,17.75
2023-05-22T20:15:47.925Z,25.83
2023-05-22T20:18:15.228Z,21.13
2023-05-22T20:20:42.407Z,18.60
2023-05-22T20:23:09.493Z,18.38
2023-05-22T20:25:37.727Z,20.77
2023-05-22T20:28:05.114Z,22.25
2023-05-22T20:30:32.863Z,22.83
2023-05-22T20:32:59.871Z,19.65
2023-05-22T20:35:27.007Z,17.55
2023-05-22T20:37:54.054Z,18.13
2023-05-22T20:40:21.826Z,19.80
2023-05-22T20:42:48.868Z,22.40
2023-05-22T20:45:16.500Z,19.20
2023-05-22T20:47:43.722Z,17.27
2023-05-22T20:50:11.369Z,21.45
2023-05-22T20:52:38.534Z,19.27
2023-05-22T20:55:06.936Z,17.40
2023-05-22T20:57:34.661Z,20.63
2023-05-22T21:00:01.822Z,23.80
2023-05-22T21:02:28.877Z,21.20
2023-05-22T21:04:55.996Z,18.50
2023-05-22T21:07:23.095Z,19.75
2023-05-22T21:09:50.143Z,20.63
2023-05-22T21:12:17.319Z,22.05
2023-05-22T21:14:44.431Z,20.02
2023-05-22T21:17:11.490Z,19.77
2023-05-22T21:19:38.671Z,21.05
2023-05-22T21:22:05.885Z,21.35
2023-05-22T21:24:33.185Z,24.42
2023-05-22T21:27:00.699Z,24.55
2023-05-22T21:29:27.799Z,23.20
2023-05-22T21:31:54.895Z,18.60
2023-05-22T21:34:22.047Z,22.27
2023-05-22T21:36:50.541Z,22.50
2023-05-22T21:39:17.498Z,21.35
2023-05-22T21:41:44.580Z,18.60
2023-05-22T21:44:11.665Z,21.25
2023-05-22T21:46:38.773Z,21.00
2023-05-22T21:49:06.271Z,21.70
2023-05-22T21:51:33.552Z,21.77
2023-05-22T21:54:00.870Z,25.63
2023-05-22T21:56:28.028Z,23.30
2023-05-22T21:58:55.082Z,23.52
2023-05-22T22:01:22.295Z,23.13
2023-05-22T22:03:49.354Z,22.55
2023-05-22T22:06:16.488Z,24.38
2023-05-22T22:08:43.475Z,27.60
2023-05-22T22:11:10.565Z,26.13
2023-05-22T22:13:37.626Z,21.45
2023-05-22T22:16:05.013Z,28.45
2023-05-22T22:18:33.622Z,25.67
2023-05-22T22:21:02.511Z,21.77
2023-05-22T22:23:29.818Z,22.52
2023-05-22T22:25:56.853Z,29.23
2023-05-22T22:28:23.904Z,20.42
2023-05-22T22:30:51.007Z,25.48
2023-05-22T22:33:18.108Z,23.60
2023-05-22T22:35:45.951Z,24.42
2023-05-22T22:38:12.923Z,25.50
2023-05-22T22:40:40.346Z,24.60
2023-05-22T22:43:07.459Z,16.95
2023-05-22T22:45:34.612Z,21.30
2023-05-22T22:48:01.687Z,20.75
2023-05-22T22:50:28.826Z,23.55
2023-05-22T22:52:55.906Z,23.42
2023-05-22T22:55:23.108Z,21.27
2023-05-22T22:57:50.417Z,18.85
2023-05-22T23:00:18.949Z,21.38
2023-05-22T23:02:46.191Z,19.88
2023-05-22T23:05:14.963Z,29.70
2023-05-22T23:07:42.104Z,17.13
2023-05-22T23:10:09.484Z,19.35
2023-05-22T23:12:36.503Z,25.13
2023-05-22T23:15:04.169Z,24.70
2023-05-22T23:17:31.313Z,20.20
2023-05-22T23:19:58.578Z,16.40
2023-05-22T23:22:25.718Z,21.10
2023-05-22T23:24:52.785Z,24.02
2023-05-22T23:27:19.792Z,17.70
2023-05-22T23:29:46.834Z,19.48
2023-05-22T23:32:14.901Z,22.63
2023-05-22T23:34:42.473Z,22.65
2023-05-22T23:37:10.140Z,11.52
2023-05-22T23:39:37.205Z,19.88
2023-05-22T23:42:04.400Z,23.02
2023-05-22T23:44:31.862Z,23.08
2023-05-22T23:46:59.224Z,19.90
2023-05-22T23:49:26.618Z,21.58
2023-05-22T23:51:53.823Z,21.52
2023-05-22T23:54:20.991Z,22.40
2023-05-22T23:56:48.279Z,21.48
2023-05-22T23:59:15.902Z,22.52
